createdAt,value
2022-09-18T00:01:48.996Z,1.08
2022-09-18T00:04:19.578Z,1.60
2022-09-18T00:06:49.765Z,0.68
2022-09-18T00:09:19.890Z,0.77
2022-09-18T00:11:52.355Z,0.68
2022-09-18T00:14:25.045Z,0.70
2022-09-18T00:16:55.885Z,0.68
2022-09-18T00:19:26.409Z,0.60
2022-09-18T00:21:56.324Z,1.23
2022-09-18T00:24:26.283Z,0.45
2022-09-18T00:26:56.119Z,0.52
2022-09-18T00:29:26.238Z,0.70
2022-09-18T00:31:56.644Z,0.73
2022-09-18T00:34:26.485Z,0.70
2022-09-18T00:36:56.316Z,0.98
2022-09-18T00:39:26.328Z,1.05
2022-09-18T00:41:56.520Z,0.73
2022-09-18T00:44:46.840Z,0.82
2022-09-18T00:47:38.338Z,1.00
2022-09-18T00:50:28.572Z,0.60
2022-09-18T00:53:03.268Z,0.75
2022-09-18T00:55:41.708Z,0.73
2022-09-18T00:58:11.931Z,0.80
2022-09-18T01:00:41.917Z,0.63
2022-09-18T01:03:12.071Z,0.50
2022-09-18T01:06:05.963Z,0.77
2022-09-18T01:09:05.696Z,0.43
2022-09-18T01:11:56.736Z,0.50
2022-09-18T01:14:38.296Z,0.70
2022-09-18T01:17:31.003Z,0.40
2022-09-18T01:20:28.740Z,0.73
2022-09-18T01:23:37.007Z,0.80
2022-09-18T01:26:27.699Z,0.80
2022-09-18T01:29:05.157Z,0.77
2022-09-18T01:32:08.668Z,0.60
2022-09-18T01:35:36.815Z,0.88
2022-09-18T01:38:14.628Z,0.77
2022-09-18T01:41:01.882Z,0.63
2022-09-18T01:43:34.169Z,1.00
2022-09-18T01:46:11.400Z,0.52
2022-09-18T01:48:49.519Z,0.55
2022-09-18T01:51:37.868Z,0.70
2022-09-18T01:54:16.973Z,0.93
2022-09-18T01:57:01.545Z,0.68
2022-09-18T01:59:50.438Z,0.85
2022-09-18T02:02:26.387Z,0.63
2022-09-18T02:05:02.084Z,0.47
2022-09-18T02:07:48.369Z,0.50
2022-09-18T02:10:23.400Z,0.50
2022-09-18T02:12:55.528Z,0.32
2022-09-18T02:15:30.905Z,0.43
2022-09-18T02:18:11.586Z,0.60
2022-09-18T02:23:16.084Z,0.28
2022-09-18T02:25:54.609Z,0.65
2022-09-18T02:28:27.871Z,0.60
2022-09-18T02:30:59.665Z,0.63
2022-09-18T02:33:33.784Z,0.43
2022-09-18T02:36:16.366Z,0.60
2022-09-18T02:38:51.486Z,0.55
2022-09-18T02:41:58.401Z,0.70
2022-09-18T02:44:47.843Z,0.50
2022-09-18T02:47:45.761Z,0.32
2022-09-18T02:50:34.890Z,0.60
2022-09-18T02:53:26.986Z,0.47
2022-09-18T02:56:07.741Z,0.55
2022-09-18T02:58:46.735Z,0.55
2022-09-18T03:01:18.709Z,0.45
2022-09-18T03:03:49.319Z,0.60
2022-09-18T03:06:21.368Z,0.45
2022-09-18T03:08:51.793Z,0.60
2022-09-18T03:11:21.674Z,0.60
2022-09-18T03:13:52.498Z,0.75
2022-09-18T03:16:22.684Z,0.50
2022-09-18T03:18:52.934Z,0.70
2022-09-18T03:21:23.367Z,0.60
2022-09-18T03:23:53.819Z,0.90
2022-09-18T03:26:29.764Z,0.70
2022-09-18T03:29:00.592Z,0.57
2022-09-18T03:31:32.262Z,0.93
2022-09-18T03:34:04.904Z,0.75
2022-09-18T03:36:35.518Z,0.60
2022-09-18T03:39:06.904Z,0.57
2022-09-18T03:41:37.586Z,0.50
2022-09-18T03:44:10.010Z,0.73
2022-09-18T03:46:43.339Z,0.50
2022-09-18T03:49:13.489Z,0.40
2022-09-18T03:51:44.629Z,0.52
2022-09-18T03:54:15.936Z,0.50
2022-09-18T03:57:04.174Z,0.40
2022-09-18T03:59:57.401Z,0.60
2022-09-18T04:02:46.300Z,0.70
2022-09-18T04:05:35.269Z,0.43
2022-09-18T04:08:37.756Z,0.40
2022-09-18T04:11:19.249Z,0.43
2022-09-18T04:13:49.803Z,0.40
2022-09-18T04:16:20.826Z,0.80
2022-09-18T04:18:51.008Z,0.60
2022-09-18T04:21:21.003Z,0.47
2022-09-18T04:23:51.505Z,0.50
2022-09-18T04:26:22.239Z,0.45
2022-09-18T04:28:57.473Z,0.43
2022-09-18T04:31:28.065Z,0.50
2022-09-18T04:33:59.618Z,0.70
2022-09-18T04:36:30.144Z,0.40
2022-09-18T04:39:00.523Z,0.95
2022-09-18T04:41:30.611Z,0.38
2022-09-18T04:44:01.110Z,0.55
2022-09-18T04:46:31.625Z,0.75
2022-09-18T04:49:03.473Z,0.32
2022-09-18T04:51:34.484Z,0.40
2022-09-18T04:54:05.000Z,0.35
2022-09-18T04:56:38.714Z,0.57
2022-09-18T04:59:09.177Z,0.40
2022-09-18T05:01:42.906Z,0.22
2022-09-18T05:06:58.137Z,0.40
2022-09-18T05:09:28.342Z,0.68
2022-09-18T05:11:58.742Z,0.40
2022-09-18T05:14:29.036Z,0.40
2022-09-18T05:17:04.036Z,0.90
2022-09-18T05:19:38.630Z,0.60
2022-09-18T05:22:22.531Z,0.60
2022-09-18T05:24:54.578Z,0.50
2022-09-18T05:27:27.077Z,0.35
2022-09-18T05:29:58.731Z,0.43
2022-09-18T05:35:13.106Z,0.55
2022-09-18T05:37:45.519Z,0.30
2022-09-18T05:40:16.660Z,0.50
2022-09-18T05:42:49.886Z,0.50
2022-09-18T05:45:21.394Z,0.80
2022-09-18T05:47:59.296Z,0.30
2022-09-18T05:50:32.409Z,0.40
2022-09-18T05:53:14.053Z,0.70
2022-09-18T05:55:53.590Z,1.10
2022-09-18T05:58:24.090Z,0.50
2022-09-18T06:01:02.506Z,0.60
2022-09-18T06:03:52.030Z,0.28
2022-09-18T06:06:24.599Z,0.47
2022-09-18T06:08:55.040Z,0.52
2022-09-18T06:11:27.400Z,0.90
2022-09-18T06:13:57.832Z,0.90
2022-09-18T06:16:27.775Z,0.50
2022-09-18T06:19:05.333Z,0.52
2022-09-18T06:21:36.158Z,0.40
2022-09-18T06:24:10.121Z,0.40
2022-09-18T06:26:50.759Z,0.50
2022-09-18T06:29:22.676Z,1.00
2022-09-18T06:32:01.508Z,0.50
2022-09-18T06:34:35.485Z,0.50
2022-09-18T06:37:13.886Z,0.60
2022-09-18T06:39:44.947Z,0.63
2022-09-18T06:42:27.291Z,0.60
2022-09-18T06:45:27.620Z,0.68
2022-09-18T06:48:07.626Z,0.68
2022-09-18T06:50:40.003Z,0.57
2022-09-18T06:53:12.734Z,0.93
2022-09-18T06:55:53.433Z,0.60
2022-09-18T06:58:24.887Z,0.55
2022-09-18T07:00:56.568Z,0.65
2022-09-18T07:03:32.254Z,0.95
2022-09-18T07:06:23.363Z,0.80
2022-09-18T07:08:55.463Z,0.50
2022-09-18T07:11:43.375Z,0.57
2022-09-18T07:14:14.321Z,0.43
2022-09-18T07:16:44.210Z,0.60
2022-09-18T07:19:15.336Z,0.60
2022-09-18T07:21:45.796Z,0.40
2022-09-18T07:24:15.840Z,0.45
2022-09-18T07:26:46.263Z,0.40
2022-09-18T07:29:16.679Z,0.40
2022-09-18T07:31:46.946Z,0.40
2022-09-18T07:34:17.107Z,0.40
2022-09-18T07:36:50.479Z,0.57
2022-09-18T07:39:21.266Z,0.55
2022-09-18T07:42:09.631Z,0.50
2022-09-18T07:44:42.833Z,0.40
2022-09-18T07:47:13.873Z,0.40
2022-09-18T07:49:44.926Z,0.63
2022-09-18T07:52:15.631Z,0.40
2022-09-18T07:54:49.637Z,0.60
2022-09-18T07:57:29.274Z,0.40
2022-09-18T08:00:30.101Z,0.55
2022-09-18T08:03:08.117Z,0.55
2022-09-18T08:05:56.687Z,0.40
2022-09-18T08:08:27.244Z,0.70
2022-09-18T08:11:16.100Z,0.60
2022-09-18T08:13:58.923Z,0.30
2022-09-18T08:16:32.149Z,0.38
2022-09-18T08:19:25.293Z,0.40
2022-09-18T08:22:02.628Z,0.45
2022-09-18T08:24:34.389Z,0.50
2022-09-18T08:27:05.702Z,0.47
2022-09-18T08:29:36.239Z,0.50
2022-09-18T08:32:10.009Z,0.60
2022-09-18T08:34:41.193Z,0.75
2022-09-18T08:37:13.871Z,0.50
2022-09-18T08:40:02.151Z,0.65
2022-09-18T08:43:04.930Z,0.50
2022-09-18T08:45:50.412Z,0.52
2022-09-18T08:51:08.344Z,0.70
2022-09-18T08:53:43.972Z,0.57
2022-09-18T08:56:54.338Z,0.50
2022-09-18T08:59:49.093Z,0.60
2022-09-18T09:02:30.084Z,0.43
2022-09-18T09:05:04.201Z,0.45
2022-09-18T09:07:53.788Z,0.68
2022-09-18T09:10:40.250Z,0.50
2022-09-18T09:13:56.904Z,0.63
2022-09-18T09:16:42.392Z,0.50
2022-09-18T09:19:29.189Z,0.60
2022-09-18T09:22:21.842Z,1.00
2022-09-18T09:25:06.557Z,0.75
2022-09-18T09:28:24.646Z,0.50
2022-09-18T09:31:17.784Z,0.77
2022-09-18T10:09:52.020Z,0.65
2022-09-18T10:12:30.330Z,0.90
2022-09-18T10:15:20.407Z,1.00
2022-09-18T10:17:54.044Z,1.10
2022-09-18T10:20:29.505Z,0.63
2022-09-18T10:23:25.567Z,0.82
2022-09-18T10:26:02.358Z,0.75
2022-09-18T10:28:34.338Z,0.80
2022-09-18T10:31:13.467Z,1.05
2022-09-18T10:33:52.435Z,0.55
2022-09-18T10:36:44.781Z,0.90
2022-09-18T10:39:31.546Z,0.75
2022-09-18T10:42:08.129Z,0.70
2022-09-18T10:47:20.467Z,1.00
2022-09-18T10:50:15.433Z,0.32
2022-09-18T10:52:49.746Z,0.80
2022-09-18T10:55:29.892Z,0.40
2022-09-18T10:58:19.281Z,0.17
2022-09-18T11:01:03.088Z,0.22
2022-09-18T11:03:48.529Z,0.95
2022-09-18T11:06:32.623Z,0.60
2022-09-18T11:09:13.626Z,0.43
2022-09-18T11:11:52.517Z,0.30
2022-09-18T11:14:32.691Z,0.75
2022-09-18T11:17:31.776Z,0.43
2022-09-18T11:20:07.022Z,0.70
2022-09-18T11:22:47.131Z,0.35
2022-09-18T11:25:34.414Z,0.40
2022-09-18T11:28:29.339Z,0.50
2022-09-18T11:31:07.298Z,0.47
2022-09-18T11:33:48.689Z,0.30
2022-09-18T11:36:28.320Z,0.30
2022-09-18T11:39:02.916Z,0.90
2022-09-18T11:41:39.041Z,0.63
2022-09-18T11:44:23.382Z,1.77
2022-09-18T11:46:54.381Z,1.63
2022-09-18T11:49:31.569Z,1.20
2022-09-18T11:55:15.173Z,0.90
2022-09-18T11:58:05.961Z,0.70
2022-09-18T12:00:48.721Z,1.10
2022-09-18T12:03:39.798Z,0.40
2022-09-18T12:06:35.351Z,0.70
2022-09-18T12:09:17.205Z,0.65
2022-09-18T12:12:04.995Z,2.10
2022-09-18T12:14:58.372Z,0.90
2022-09-18T12:17:38.045Z,0.50
2022-09-18T12:20:25.102Z,0.90
2022-09-18T12:22:58.072Z,0.70
2022-09-18T12:25:40.149Z,0.60
2022-09-18T12:28:35.607Z,0.70
2022-09-18T12:31:14.173Z,0.70
2022-09-18T12:34:09.645Z,0.30
2022-09-18T12:37:07.134Z,0.73
2022-09-18T12:39:40.741Z,0.68
2022-09-18T12:42:39.998Z,0.77
2022-09-18T12:45:24.216Z,0.40
2022-09-18T12:48:33.275Z,0.80
2022-09-18T12:51:09.481Z,0.68
2022-09-18T12:54:06.164Z,0.60
2022-09-18T12:56:52.321Z,0.82
2022-09-18T12:59:42.028Z,0.60
2022-09-18T13:02:42.619Z,0.70
2022-09-18T13:05:40.259Z,0.52
2022-09-18T13:08:25.899Z,0.47
2022-09-18T13:11:08.064Z,0.70
2022-09-18T13:14:00.513Z,0.68
2022-09-18T13:16:45.413Z,0.50
2022-09-18T13:19:31.354Z,0.50
2022-09-18T13:22:09.194Z,0.90
2022-09-18T13:24:42.699Z,1.05
2022-09-18T13:27:17.156Z,0.70
2022-09-18T13:29:57.839Z,0.60
2022-09-18T13:32:37.559Z,0.20
2022-09-18T13:35:24.831Z,0.57
2022-09-18T13:38:10.938Z,0.35
2022-09-18T13:40:50.297Z,0.90
2022-09-18T13:43:30.180Z,0.50
2022-09-18T13:46:07.137Z,0.45
2022-09-18T13:48:49.959Z,0.40
2022-09-18T13:51:31.115Z,0.88
2022-09-18T13:54:18.661Z,0.70
2022-09-18T13:57:11.931Z,0.38
2022-09-18T14:00:09.806Z,0.52
2022-09-18T14:02:43.029Z,0.57
2022-09-18T14:05:39.616Z,0.50
2022-09-18T14:08:14.912Z,0.30
2022-09-18T14:11:11.727Z,0.30
2022-09-18T14:13:56.650Z,0.30
2022-09-18T14:16:44.686Z,0.20
2022-09-18T14:19:33.451Z,0.20
2022-09-18T14:22:04.393Z,0.30
2022-09-18T14:24:52.714Z,0.60
2022-09-18T14:27:46.430Z,0.47
2022-09-18T14:30:22.710Z,0.30
2022-09-18T14:33:05.041Z,0.45
2022-09-18T14:35:59.003Z,0.50
2022-09-18T14:38:35.899Z,0.70
2022-09-18T14:41:21.067Z,0.70
2022-09-18T14:44:03.991Z,0.30
2022-09-18T14:46:34.720Z,0.40
2022-09-18T14:49:04.791Z,0.70
2022-09-18T14:51:49.312Z,0.60
2022-09-18T14:54:25.103Z,0.88
2022-09-18T14:57:02.742Z,0.60
2022-09-18T14:59:33.631Z,0.75
2022-09-18T15:02:24.255Z,0.32
2022-09-18T15:04:54.695Z,0.43
2022-09-18T15:07:25.239Z,0.40
2022-09-18T15:10:01.075Z,0.70
2022-09-18T15:12:33.935Z,0.40
2022-09-18T15:15:28.675Z,0.57
2022-09-18T15:17:59.191Z,0.40
2022-09-18T15:20:31.171Z,0.50
2022-09-18T15:23:01.346Z,0.20
2022-09-18T15:25:34.764Z,0.70
2022-09-18T15:28:08.959Z,0.38
2022-09-18T15:30:39.708Z,0.40
2022-09-18T15:33:20.930Z,0.20
2022-09-18T15:35:54.602Z,1.02
2022-09-18T15:40:56.859Z,0.50
2022-09-18T15:43:34.985Z,0.30
2022-09-18T15:46:10.784Z,0.60
2022-09-18T15:48:46.480Z,0.50
2022-09-18T15:51:18.132Z,0.30
2022-09-18T15:54:10.498Z,0.40
2022-09-18T15:57:00.928Z,0.50
2022-09-18T15:59:40.065Z,0.40
2022-09-18T16:02:28.676Z,0.22
2022-09-18T16:05:08.290Z,0.30
2022-09-18T16:07:39.706Z,0.50
2022-09-18T16:10:41.211Z,0.50
2022-09-18T16:13:17.312Z,0.50
2022-09-18T16:15:53.264Z,0.32
2022-09-18T16:18:28.388Z,0.20
2022-09-18T16:21:02.747Z,0.32
2022-09-18T16:23:48.754Z,0.35
2022-09-18T16:26:21.563Z,0.30
2022-09-18T16:29:16.219Z,0.40
2022-09-18T16:31:48.161Z,0.40
2022-09-18T16:34:31.441Z,0.38
2022-09-18T16:37:02.053Z,0.20
2022-09-18T16:39:32.359Z,0.30
2022-09-18T16:42:12.794Z,0.45
2022-09-18T16:44:43.105Z,0.43
2022-09-18T16:47:14.758Z,0.43
2022-09-18T16:49:48.540Z,0.32
2022-09-18T16:54:48.012Z,0.40
2022-09-18T16:57:24.853Z,0.38
2022-09-18T16:59:55.537Z,0.30
2022-09-18T17:02:26.277Z,0.40
2022-09-18T17:04:56.350Z,0.22
2022-09-18T17:07:26.814Z,0.40
2022-09-18T17:09:57.754Z,0.47
2022-09-18T17:12:27.916Z,0.32
2022-09-18T17:14:58.235Z,0.20
2022-09-18T17:17:28.276Z,0.32
2022-09-18T17:19:58.609Z,0.43
2022-09-18T17:22:28.928Z,0.43
2022-09-18T17:24:58.985Z,0.38
2022-09-18T17:27:28.998Z,0.40
2022-09-18T17:29:59.378Z,0.68
2022-09-18T17:32:29.527Z,0.52
2022-09-18T17:34:59.655Z,0.40
2022-09-18T17:37:31.828Z,0.60
2022-09-18T17:40:02.896Z,0.70
2022-09-18T17:42:33.553Z,0.43
2022-09-18T17:45:03.653Z,0.50
2022-09-18T17:47:34.096Z,0.32
2022-09-18T17:50:06.739Z,0.60
2022-09-18T17:52:38.918Z,0.43
2022-09-18T17:55:09.771Z,0.70
2022-09-18T17:57:40.580Z,0.52
2022-09-18T18:00:11.589Z,0.70
2022-09-18T18:02:41.670Z,0.50
2022-09-18T18:05:11.511Z,0.63
2022-09-18T18:07:41.675Z,0.75
2022-09-18T18:10:11.983Z,0.80
2022-09-18T18:12:42.200Z,0.60
2022-09-18T18:15:12.355Z,0.60
2022-09-18T18:17:44.208Z,0.93
2022-09-18T18:20:14.291Z,0.60
2022-09-18T18:22:44.796Z,0.80
2022-09-18T18:25:16.559Z,0.98
2022-09-18T18:27:46.892Z,0.80
2022-09-18T18:30:17.729Z,0.63
2022-09-18T18:32:49.747Z,0.60
2022-09-18T18:35:21.070Z,0.55
2022-09-18T18:37:51.080Z,0.65
2022-09-18T18:40:23.125Z,0.52
2022-09-18T18:42:53.830Z,0.63
2022-09-18T18:45:24.003Z,0.60
2022-09-18T18:47:54.828Z,0.45
2022-09-18T18:50:26.258Z,0.60
2022-09-18T18:52:56.513Z,0.73
2022-09-18T18:55:27.885Z,0.73
2022-09-18T18:57:58.423Z,0.60
2022-09-18T19:00:28.729Z,0.60
2022-09-18T19:02:58.704Z,0.73
2022-09-18T19:05:31.682Z,0.85
2022-09-18T19:08:01.725Z,0.75
2022-09-18T19:10:33.122Z,0.50
2022-09-18T19:13:03.407Z,0.52
2022-09-18T19:15:37.780Z,0.43
2022-09-18T19:18:11.302Z,0.70
2022-09-18T19:20:41.851Z,0.60
2022-09-18T19:23:14.418Z,0.55
2022-09-18T19:25:45.959Z,0.70
2022-09-18T19:28:20.088Z,0.52
2022-09-18T19:30:50.708Z,0.50
2022-09-18T19:33:22.302Z,0.70
2022-09-18T19:38:22.411Z,0.73
2022-09-18T19:40:57.134Z,0.50
2022-09-18T19:43:36.544Z,0.88
2022-09-18T19:46:11.602Z,0.60
2022-09-18T19:48:42.308Z,0.55
2022-09-18T19:51:12.426Z,0.43
2022-09-18T19:53:42.759Z,0.60
2022-09-18T19:56:32.997Z,0.50
2022-09-18T19:59:03.450Z,0.52
2022-09-18T20:01:33.801Z,0.50
2022-09-18T20:04:04.433Z,0.70
2022-09-18T20:06:34.829Z,0.43
2022-09-18T20:09:06.115Z,0.80
2022-09-18T20:11:36.611Z,0.65
2022-09-18T20:14:07.066Z,0.55
2022-09-18T20:16:37.313Z,0.60
2022-09-18T20:19:07.491Z,0.63
2022-09-18T20:21:37.789Z,0.70
2022-09-18T20:24:07.927Z,0.68
2022-09-18T20:26:38.038Z,0.63
2022-09-18T20:29:07.980Z,0.65
2022-09-18T20:31:38.392Z,0.52
2022-09-18T20:34:08.940Z,0.57
2022-09-18T20:36:39.361Z,0.73
2022-09-18T20:39:11.136Z,0.77
2022-09-18T20:41:41.858Z,0.65
2022-09-18T20:44:12.913Z,0.77
2022-09-18T20:46:43.820Z,0.80
2022-09-18T20:49:18.498Z,0.73
2022-09-18T20:51:48.979Z,0.60
2022-09-18T20:54:22.181Z,0.55
2022-09-18T20:56:52.847Z,0.40
2022-09-18T20:59:23.105Z,0.50
2022-09-18T21:01:53.845Z,0.82
2022-09-18T21:04:24.518Z,0.70
2022-09-18T21:06:58.383Z,0.45
2022-09-18T21:09:32.032Z,0.52
2022-09-18T21:12:02.088Z,0.50
2022-09-18T21:14:32.757Z,0.60
2022-09-18T21:17:02.738Z,0.65
2022-09-18T21:19:32.949Z,0.60
2022-09-18T21:22:03.358Z,0.60
2022-09-18T21:24:33.966Z,0.70
2022-09-18T21:27:04.053Z,0.70
2022-09-18T21:29:33.871Z,1.00
2022-09-18T21:32:03.914Z,0.70
2022-09-18T21:34:35.467Z,1.70
2022-09-18T21:37:12.551Z,1.60
2022-09-18T21:39:45.528Z,1.30
2022-09-18T21:42:18.906Z,1.38
2022-09-18T21:44:48.934Z,1.30
2022-09-18T21:47:19.137Z,1.30
2022-09-18T21:49:49.920Z,1.40
2022-09-18T21:52:20.270Z,1.50
2022-09-18T21:54:50.784Z,2.53
2022-09-18T21:57:20.876Z,2.03
2022-09-18T21:59:51.021Z,1.90
2022-09-18T22:02:23.288Z,2.22
2022-09-18T22:04:56.281Z,1.85
2022-09-18T22:07:26.954Z,2.10
2022-09-18T22:09:57.177Z,2.10
2022-09-18T22:12:27.848Z,1.98
2022-09-18T22:14:58.113Z,2.35
2022-09-18T22:17:28.740Z,2.17
2022-09-18T22:20:01.906Z,2.17
2022-09-18T22:22:32.876Z,2.30
2022-09-18T22:25:03.499Z,2.20
2022-09-18T22:27:34.915Z,2.22
2022-09-18T22:30:05.737Z,2.60
2022-09-18T22:32:36.817Z,2.65
2022-09-18T22:35:07.532Z,2.58
2022-09-18T22:37:37.419Z,3.05
2022-09-18T22:40:07.977Z,2.33
2022-09-18T22:42:38.889Z,2.65
2022-09-18T22:45:10.209Z,2.55
2022-09-18T22:47:40.762Z,2.30
2022-09-18T22:50:11.011Z,2.33
2022-09-18T22:52:42.096Z,2.67
2022-09-18T22:55:12.173Z,2.95
2022-09-18T22:57:42.912Z,2.47
2022-09-18T23:00:16.513Z,2.45
2022-09-18T23:02:47.413Z,2.90
2022-09-18T23:05:18.134Z,2.78
2022-09-18T23:07:48.865Z,2.63
2022-09-18T23:10:19.382Z,2.25
2022-09-18T23:12:49.794Z,2.35
2022-09-18T23:15:20.355Z,2.28
2022-09-18T23:17:50.237Z,2.17
2022-09-18T23:20:20.621Z,2.60
2022-09-18T23:22:50.491Z,2.33
2022-09-18T23:25:20.402Z,2.53
2022-09-18T23:27:51.226Z,2.72
2022-09-18T23:30:22.387Z,2.40
2022-09-18T23:32:53.060Z,3.10
2022-09-18T23:35:23.680Z,2.92
2022-09-18T23:37:54.002Z,3.03
2022-09-18T23:40:24.235Z,3.33
2022-09-18T23:42:54.856Z,2.40
2022-09-18T23:45:25.138Z,2.33
2022-09-18T23:47:55.354Z,2.80
2022-09-18T23:50:25.724Z,2.55
2022-09-18T23:52:56.124Z,2.55
2022-09-18T23:55:28.389Z,2.58
2022-09-18T23:57:58.737Z,2.60
